Stone, United Kingdom
Current Conditions -  °F | °C
As of 8:50 PM on Thursday 27 Nov 2014 (Local Time) from EGOS Reporting Station
Rain Showers Rain Showers  
Wind Chill: 43°   Ceiling: 5000
Heat Index: 43°   Visibility: 1.8mi
Dew Point: 41°   Wind: 3mph
Humidity: 93%   Direction: 60°ENE
Pressure: 29.56"   Gusts: NA
Location:  52.91°N, 2.15°W
Report Text: EGOS 272050Z AUTO 06003KT 3000 -SHRA FEW034/// BKN050/// 06/05 Q1001
Loading
Personal Weather Stations






























Interactive Weather Map New forecast layout! Learn more

10-Day Weather Forecast

Advertisements
Track Severe Weather on mobile